createdAt,value
2018-03-02T00:00:55.199Z,0
2018-03-02T00:01:54.927Z,0
2018-03-02T00:02:55.458Z,0
2018-03-02T00:03:55.396Z,0
2018-03-02T00:04:55.393Z,0
2018-03-02T00:05:55.375Z,0
2018-03-02T00:06:55.340Z,0
2018-03-02T00:07:55.313Z,0
2018-03-02T00:08:55.290Z,0
2018-03-02T00:09:55.180Z,0
2018-03-02T00:10:55.257Z,0
2018-03-02T00:11:55.218Z,0
2018-03-02T00:12:55.198Z,0
2018-03-02T00:13:55.197Z,0
2018-03-02T00:14:55.160Z,0
2018-03-02T00:15:55.138Z,0
2018-03-02T00:16:55.121Z,0
2018-03-02T00:17:55.096Z,0
2018-03-02T00:18:55.067Z,0
2018-03-02T00:19:54.811Z,0
2018-03-02T00:20:55.034Z,0
2018-03-02T00:21:55.004Z,0
2018-03-02T00:22:54.987Z,0
2018-03-02T00:23:54.969Z,0
2018-03-02T00:24:54.949Z,0
2018-03-02T00:25:54.921Z,0
2018-03-02T00:26:54.647Z,0
2018-03-02T00:27:54.883Z,0
2018-03-02T00:28:54.861Z,0
2018-03-02T00:29:54.842Z,0
2018-03-02T00:30:54.810Z,0
2018-03-02T00:31:54.793Z,0
2018-03-02T00:32:54.519Z,0
2018-03-02T00:33:54.498Z,0
2018-03-02T00:34:54.730Z,0
2018-03-02T00:35:54.712Z,0
2018-03-02T00:36:54.687Z,0
2018-03-02T00:37:54.678Z,0
2018-03-02T00:38:54.401Z,0
2018-03-02T00:39:54.618Z,0
2018-03-02T00:40:54.345Z,0
2018-03-02T00:41:54.584Z,0
2018-03-02T00:42:55.978Z,0
2018-03-02T00:43:54.538Z,0
2018-03-02T00:44:54.523Z,0
2018-03-02T00:45:54.504Z,0
2018-03-02T00:47:54.450Z,0
2018-03-02T00:48:54.442Z,0
2018-03-02T00:49:54.149Z,0
2018-03-02T00:50:54.192Z,0
2018-03-02T00:51:54.363Z,0
2018-03-02T00:52:53.828Z,0
2018-03-02T00:53:54.328Z,0
2018-03-02T00:54:54.301Z,0
2018-03-02T00:55:54.027Z,0
2018-03-02T00:56:54.256Z,0
2018-03-02T00:57:54.239Z,0
2018-03-02T00:58:54.214Z,0
2018-03-02T00:59:54.214Z,0
2018-03-02T01:00:54.177Z,0
2018-03-02T01:01:54.146Z,0
2018-03-02T01:02:53.873Z,0
2018-03-02T01:03:53.845Z,0
2018-03-02T01:04:54.086Z,0
2018-03-02T01:05:54.062Z,0
2018-03-02T01:06:53.778Z,0
2018-03-02T01:07:54.022Z,0
2018-03-02T01:08:54.009Z,0
2018-03-02T01:09:53.714Z,0
2018-03-02T01:10:53.949Z,0
2018-03-02T01:11:53.929Z,0
2018-03-02T01:12:53.904Z,0
2018-03-02T01:13:53.888Z,0
2018-03-02T01:14:53.864Z,0
2018-03-02T01:15:53.843Z,0
2018-03-02T01:16:53.821Z,0
2018-03-02T01:17:53.799Z,0
2018-03-02T01:18:53.537Z,0
2018-03-02T01:19:53.754Z,0
2018-03-02T01:20:53.752Z,0
2018-03-02T01:21:53.712Z,0
2018-03-02T01:22:53.686Z,0
2018-03-02T01:23:53.669Z,0
2018-03-02T01:24:53.647Z,0
2018-03-02T01:25:53.631Z,0
2018-03-02T01:26:53.353Z,0
2018-03-02T01:27:53.594Z,0
2018-03-02T01:28:53.317Z,0
2018-03-02T01:29:53.549Z,0
2018-03-02T01:30:53.522Z,0
2018-03-02T01:31:53.495Z,0
2018-03-02T01:32:53.491Z,0
2018-03-02T01:33:53.467Z,0
2018-03-02T01:34:53.440Z,0
2018-03-02T01:35:53.418Z,0
2018-03-02T01:36:53.388Z,0
2018-03-02T01:37:53.370Z,0
2018-03-02T01:38:53.350Z,0
2018-03-02T01:39:53.326Z,0
2018-03-02T01:40:53.300Z,0
2018-03-02T01:41:53.280Z,0
2018-03-02T01:42:53.008Z,0
2018-03-02T01:43:52.979Z,0
2018-03-02T01:44:53.221Z,0
2018-03-02T01:45:53.196Z,0
2018-03-02T01:46:53.170Z,0
2018-03-02T01:47:53.151Z,0
2018-03-02T01:48:53.124Z,0
2018-03-02T01:49:53.116Z,0
2018-03-02T01:50:53.084Z,0
2018-03-02T01:51:53.061Z,0
2018-03-02T01:52:53.036Z,0
2018-03-02T01:53:53.023Z,0
2018-03-02T01:54:52.738Z,0
2018-03-02T01:55:52.978Z,0
2018-03-02T01:56:52.692Z,0
2018-03-02T01:57:52.929Z,0
2018-03-02T01:58:52.906Z,0
2018-03-02T01:59:52.888Z,0
2018-03-02T02:00:52.854Z,0
2018-03-02T02:01:52.832Z,0
2018-03-02T02:02:52.558Z,0
2018-03-02T02:03:52.535Z,0
2018-03-02T02:04:52.513Z,0
2018-03-02T02:05:52.751Z,0
2018-03-02T02:06:52.738Z,0
2018-03-02T02:07:52.447Z,0
2018-03-02T02:08:52.678Z,0
2018-03-02T02:09:52.402Z,0
2018-03-02T02:10:52.637Z,0
2018-03-02T02:11:52.357Z,0
2018-03-02T02:12:52.599Z,0
2018-03-02T02:13:52.572Z,0
2018-03-02T02:14:52.548Z,0
2018-03-02T02:15:52.545Z,0
2018-03-02T02:16:52.506Z,0
2018-03-02T02:17:52.491Z,0
2018-03-02T02:18:52.207Z,0
2018-03-02T02:19:52.184Z,0
2018-03-02T02:20:52.416Z,0
2018-03-02T02:21:52.146Z,0
2018-03-02T02:22:52.381Z,0
2018-03-02T02:23:52.353Z,0
2018-03-02T02:24:52.330Z,0
2018-03-02T02:25:52.305Z,0
2018-03-02T02:26:51.779Z,0
2018-03-02T02:27:52.264Z,0
2018-03-02T02:28:52.240Z,0
2018-03-02T02:29:52.220Z,0
2018-03-02T02:30:52.210Z,0
2018-03-02T02:31:52.179Z,0
2018-03-02T02:32:51.898Z,0
2018-03-02T02:33:51.886Z,0
2018-03-02T02:34:52.123Z,0
2018-03-02T02:35:51.848Z,0
2018-03-02T02:36:52.070Z,0
2018-03-02T02:37:52.070Z,0
2018-03-02T02:38:51.529Z,0
2018-03-02T02:39:51.761Z,0
2018-03-02T02:40:51.982Z,0
2018-03-02T02:41:51.710Z,0
2018-03-02T02:42:51.940Z,0
2018-03-02T02:43:51.916Z,0
2018-03-02T02:44:51.921Z,0
2018-03-02T02:45:51.892Z,0
2018-03-02T02:46:51.862Z,0
2018-03-02T02:47:51.577Z,0
2018-03-02T02:48:51.812Z,0
2018-03-02T02:49:51.793Z,0
2018-03-02T02:50:51.779Z,0
2018-03-02T02:51:51.736Z,0
2018-03-02T02:52:51.724Z,0
2018-03-02T02:53:51.704Z,0
2018-03-02T02:54:51.679Z,0
2018-03-02T02:55:51.664Z,0
2018-03-02T02:56:51.387Z,0
2018-03-02T02:57:51.616Z,0
2018-03-02T02:58:51.585Z,0
2018-03-02T02:59:51.316Z,0
2018-03-02T03:00:51.541Z,0
2018-03-02T03:01:51.264Z,0
2018-03-02T03:02:51.497Z,0
2018-03-02T03:03:51.478Z,0
2018-03-02T03:04:51.011Z,0
2018-03-02T03:05:51.464Z,0
2018-03-02T03:06:51.406Z,0
2018-03-02T03:07:51.133Z,0
2018-03-02T03:08:51.366Z,0
2018-03-02T03:09:51.088Z,0
2018-03-02T03:10:51.072Z,0
2018-03-02T03:11:52.459Z,0
2018-03-02T03:12:51.275Z,0
2018-03-02T03:13:51.267Z,0
2018-03-02T03:14:51.239Z,0
2018-03-02T03:15:50.954Z,0
2018-03-02T03:16:51.198Z,0
2018-03-02T03:17:51.166Z,0
2018-03-02T03:18:51.142Z,0
2018-03-02T03:19:51.127Z,0
2018-03-02T03:20:50.842Z,0
2018-03-02T03:21:51.083Z,0
2018-03-02T03:22:50.802Z,0
2018-03-02T03:23:50.776Z,0
2018-03-02T03:24:50.761Z,0
2018-03-02T03:25:50.991Z,0
2018-03-02T03:26:50.716Z,0
2018-03-02T03:27:50.939Z,0
2018-03-02T03:28:50.920Z,0
2018-03-02T03:29:50.647Z,0
2018-03-02T03:30:50.903Z,0
2018-03-02T03:31:50.855Z,0
2018-03-02T03:32:50.581Z,0
2018-03-02T03:33:50.814Z,0
2018-03-02T03:34:50.535Z,0
2018-03-02T03:35:53.198Z,0
2018-03-02T03:36:50.749Z,0
2018-03-02T03:37:50.727Z,0
2018-03-02T03:38:50.702Z,0
2018-03-02T03:39:50.681Z,0
2018-03-02T03:40:50.668Z,0
2018-03-02T03:41:50.380Z,0
2018-03-02T03:42:50.609Z,0
2018-03-02T03:43:50.595Z,0
2018-03-02T03:44:50.574Z,0
2018-03-02T03:45:50.291Z,0
2018-03-02T03:46:50.530Z,0
2018-03-02T03:47:50.505Z,0
2018-03-02T03:48:50.480Z,0
2018-03-02T03:49:50.457Z,0
2018-03-02T03:50:50.442Z,0
2018-03-02T03:51:50.415Z,0
2018-03-02T03:52:50.390Z,0
2018-03-02T03:53:50.370Z,0
2018-03-02T03:54:50.355Z,0
2018-03-02T03:55:50.331Z,0
2018-03-02T03:56:49.795Z,0
2018-03-02T03:57:50.284Z,0
2018-03-02T03:58:50.259Z,0
2018-03-02T03:59:50.243Z,0
2018-03-02T04:00:50.223Z,0
2018-03-02T04:01:49.950Z,0
2018-03-02T04:02:49.920Z,0
2018-03-02T04:03:49.898Z,0
2018-03-02T04:04:49.878Z,0
2018-03-02T04:05:50.109Z,0
2018-03-02T04:06:49.830Z,0
2018-03-02T04:07:50.064Z,0
2018-03-02T04:08:50.054Z,0
2018-03-02T04:09:50.016Z,0
2018-03-02T04:10:49.739Z,0
2018-03-02T04:11:49.975Z,0
2018-03-02T04:12:49.953Z,0
2018-03-02T04:13:49.933Z,0
2018-03-02T04:14:49.911Z,0
2018-03-02T04:15:49.884Z,0
2018-03-02T04:16:49.606Z,0
2018-03-02T04:17:49.837Z,0
2018-03-02T04:18:49.566Z,0
2018-03-02T04:19:49.798Z,0
2018-03-02T04:20:49.781Z,0
2018-03-02T04:21:49.755Z,0
2018-03-02T04:22:49.730Z,0
2018-03-02T04:23:49.710Z,0
2018-03-02T04:24:49.687Z,0
2018-03-02T04:25:48.900Z,0
2018-03-02T04:26:49.391Z,0
2018-03-02T04:27:49.364Z,0
2018-03-02T04:28:49.607Z,0
2018-03-02T04:29:49.576Z,0
2018-03-02T04:30:49.554Z,0
2018-03-02T04:31:49.277Z,0
2018-03-02T04:32:49.506Z,0
2018-03-02T04:33:49.490Z,0
2018-03-02T04:34:49.207Z,0
2018-03-02T04:35:49.186Z,0
2018-03-02T04:36:48.912Z,0
2018-03-02T04:37:49.395Z,0
2018-03-02T04:38:49.371Z,0
2018-03-02T04:39:49.355Z,0
2018-03-02T04:40:49.344Z,0
2018-03-02T04:41:49.306Z,0
2018-03-02T04:42:49.289Z,0
2018-03-02T04:43:49.012Z,0
2018-03-02T04:44:48.989Z,0
2018-03-02T04:45:49.220Z,0
2018-03-02T04:46:49.199Z,0
2018-03-02T04:47:48.930Z,0
2018-03-02T04:48:49.155Z,0
2018-03-02T04:49:49.130Z,0
2018-03-02T04:50:48.856Z,0
2018-03-02T04:51:48.830Z,0
2018-03-02T04:52:49.061Z,0
2018-03-02T04:53:48.792Z,0
2018-03-02T04:54:48.772Z,0
2018-03-02T04:55:48.995Z,0
2018-03-02T04:56:48.983Z,0
2018-03-02T04:57:48.702Z,0
2018-03-02T04:58:48.930Z,0
2018-03-02T04:59:48.654Z,0
2018-03-02T05:00:48.633Z,0
2018-03-02T05:01:48.882Z,0
2018-03-02T05:02:48.841Z,0
2018-03-02T05:03:48.873Z,0
2018-03-02T05:04:48.812Z,0
2018-03-02T05:05:48.524Z,0
2018-03-02T05:06:48.497Z,0
2018-03-02T05:07:48.727Z,0
2018-03-02T05:08:48.709Z,0
2018-03-02T05:09:48.434Z,0
2018-03-02T05:10:48.411Z,0
2018-03-02T05:11:48.136Z,0
2018-03-02T05:12:48.620Z,0
2018-03-02T05:13:48.594Z,4
2018-03-02T05:14:48.590Z,4
2018-03-02T05:15:48.579Z,0
2018-03-02T05:16:48.531Z,4
2018-03-02T05:17:48.504Z,0
2018-03-02T05:18:48.483Z,4
2018-03-02T05:19:48.461Z,4
2018-03-02T05:20:48.441Z,4
2018-03-02T05:21:48.422Z,4
2018-03-02T05:22:48.399Z,8
2018-03-02T05:23:48.378Z,4
2018-03-02T05:24:48.361Z,8
2018-03-02T05:25:48.329Z,12
2018-03-02T05:26:48.307Z,12
2018-03-02T05:27:48.286Z,16
2018-03-02T05:28:48.268Z,20
2018-03-02T05:29:48.238Z,20
2018-03-02T05:30:47.966Z,28
2018-03-02T05:31:48.197Z,28
2018-03-02T05:32:48.174Z,36
2018-03-02T05:33:47.900Z,40
2018-03-02T05:34:48.128Z,48
2018-03-02T05:35:48.112Z,56
2018-03-02T05:36:48.083Z,64
2018-03-02T05:37:48.063Z,76
2018-03-02T05:38:48.041Z,80
2018-03-02T05:39:48.028Z,96
2018-03-02T05:40:47.489Z,108
2018-03-02T05:41:47.980Z,120
2018-03-02T05:42:47.992Z,136
2018-03-02T05:43:47.929Z,152
2018-03-02T05:44:47.909Z,172
2018-03-02T05:45:47.888Z,192
2018-03-02T05:46:47.861Z,216
2018-03-02T05:47:47.842Z,236
2018-03-02T05:48:47.825Z,264
2018-03-02T05:49:47.542Z,288
2018-03-02T05:50:47.789Z,316
2018-03-02T05:51:47.501Z,348
2018-03-02T05:52:47.518Z,376
2018-03-02T05:53:47.714Z,408
2018-03-02T05:54:47.687Z,444
2018-03-02T05:55:47.668Z,480
2018-03-02T05:56:47.942Z,516
2018-03-02T05:57:47.616Z,556
2018-03-02T05:58:47.340Z,600
2018-03-02T05:59:47.582Z,644
2018-03-02T06:00:47.551Z,688
2018-03-02T06:01:47.523Z,736
2018-03-02T06:02:47.507Z,784
2018-03-02T06:03:47.484Z,828
2018-03-02T06:04:47.464Z,880
2018-03-02T06:05:47.437Z,932
2018-03-02T06:06:47.419Z,988
2018-03-02T06:07:46.882Z,1044
2018-03-02T06:08:47.122Z,1100
2018-03-02T06:09:47.354Z,1160
2018-03-02T06:10:47.329Z,1224
2018-03-02T06:11:47.318Z,1288
2018-03-02T06:12:47.037Z,1348
2018-03-02T06:13:47.262Z,1420
2018-03-02T06:14:46.983Z,1484
2018-03-02T06:15:46.966Z,1556
2018-03-02T06:16:47.193Z,1628
2018-03-02T06:17:46.915Z,1704
2018-03-02T06:18:47.150Z,1776
2018-03-02T06:19:46.874Z,1844
2018-03-02T06:20:46.846Z,1920
2018-03-02T06:21:47.083Z,2012
2018-03-02T06:22:47.176Z,2100
2018-03-02T06:23:46.784Z,2188
2018-03-02T06:24:47.024Z,2280
2018-03-02T06:25:46.993Z,2376
2018-03-02T06:26:46.719Z,2464
2018-03-02T06:27:46.994Z,2568
2018-03-02T06:28:46.925Z,2656
2018-03-02T06:29:46.657Z,2756
2018-03-02T06:30:46.886Z,2852
2018-03-02T06:31:46.863Z,2940
2018-03-02T06:32:46.848Z,3040
2018-03-02T06:33:46.315Z,3160
2018-03-02T06:34:46.547Z,3284
2018-03-02T06:35:46.523Z,3396
2018-03-02T06:36:46.505Z,3516
2018-03-02T06:37:46.480Z,3616
2018-03-02T06:38:46.760Z,3716
2018-03-02T06:39:46.437Z,3820
2018-03-02T06:40:46.671Z,3916
2018-03-02T06:41:46.396Z,4036
2018-03-02T06:42:46.634Z,4180
2018-03-02T06:43:46.618Z,4292
2018-03-02T06:44:46.598Z,4412
2018-03-02T06:45:46.057Z,4508
2018-03-02T06:46:46.292Z,4628
2018-03-02T06:47:46.273Z,4744
2018-03-02T06:48:46.251Z,4840
2018-03-02T06:49:46.490Z,4956
2018-03-02T06:50:46.461Z,5064
2018-03-02T06:51:46.439Z,5232
2018-03-02T06:52:46.172Z,5356
2018-03-02T06:53:46.404Z,5504
2018-03-02T06:54:46.380Z,5696
2018-03-02T06:55:46.364Z,5888
2018-03-02T06:56:46.087Z,6040
2018-03-02T06:57:46.317Z,6208
2018-03-02T06:58:46.163Z,6396
2018-03-02T06:59:46.294Z,6572
2018-03-02T07:00:46.263Z,6584
2018-03-02T07:01:45.991Z,6764
2018-03-02T07:02:46.223Z,6956
2018-03-02T07:03:46.214Z,7172
2018-03-02T07:04:46.186Z,7592
2018-03-02T07:05:46.166Z,7860
2018-03-02T07:06:46.143Z,8128
2018-03-02T07:07:46.126Z,8340
2018-03-02T07:08:45.866Z,8532
2018-03-02T07:09:45.846Z,8628
2018-03-02T07:10:45.822Z,8748
2018-03-02T07:11:45.792Z,9052
2018-03-02T07:12:45.523Z,9304
2018-03-02T07:13:45.805Z,9552
2018-03-02T07:14:45.636Z,9844
2018-03-02T07:15:45.979Z,9908
2018-03-02T07:16:45.701Z,10044
2018-03-02T07:17:45.692Z,10428
2018-03-02T07:18:45.685Z,10644
2018-03-02T07:19:45.909Z,10640
2018-03-02T07:20:45.888Z,10828
2018-03-02T07:21:45.870Z,10868
2018-03-02T07:22:45.845Z,11012
2018-03-02T07:23:45.830Z,11276
2018-03-02T07:24:45.820Z,11364
2018-03-02T07:25:45.794Z,10912
2018-03-02T07:26:45.527Z,10452
2018-03-02T07:27:45.508Z,10588
2018-03-02T07:28:45.804Z,10800
2018-03-02T07:29:45.474Z,10960
2018-03-02T07:30:45.721Z,11132
2018-03-02T07:31:45.690Z,11340
2018-03-02T07:32:45.671Z,11300
2018-03-02T07:33:45.655Z,11504
2018-03-02T07:34:45.405Z,11848
2018-03-02T07:35:45.614Z,11952
2018-03-02T07:36:45.622Z,12196
2018-03-02T07:37:45.585Z,12060
2018-03-02T07:38:45.323Z,10988
2018-03-02T07:39:45.569Z,12372
2018-03-02T07:40:45.535Z,12200
2018-03-02T07:41:45.538Z,12552
2018-03-02T07:42:45.535Z,13000
2018-03-02T07:43:45.497Z,13044
2018-03-02T07:44:45.464Z,12936
2018-03-02T07:45:45.450Z,12760
2018-03-02T07:46:45.431Z,13148
2018-03-02T07:47:45.418Z,13592
2018-03-02T07:48:45.398Z,13336
2018-03-02T07:49:45.143Z,13312
2018-03-02T07:50:45.359Z,13320
2018-03-02T07:51:45.089Z,13792
2018-03-02T07:52:45.333Z,13984
2018-03-02T07:53:45.310Z,14176
2018-03-02T07:54:45.040Z,14368
2018-03-02T07:55:45.283Z,14496
2018-03-02T07:56:45.286Z,14464
2018-03-02T07:57:44.993Z,14432
2018-03-02T07:58:45.238Z,14816
2018-03-02T07:59:45.211Z,14496
2018-03-02T08:00:45.192Z,11432
2018-03-02T08:01:45.180Z,8052
2018-03-02T08:02:45.160Z,7548
2018-03-02T08:03:45.153Z,7556
2018-03-02T08:04:45.124Z,7576
2018-03-02T08:05:45.106Z,7536
2018-03-02T08:06:44.888Z,7532
2018-03-02T08:07:45.076Z,7564
2018-03-02T08:08:45.064Z,7544
2018-03-02T08:09:45.147Z,7584
2018-03-02T08:10:45.019Z,7552
2018-03-02T08:11:45.021Z,7600
2018-03-02T08:12:44.744Z,7628
2018-03-02T08:13:44.710Z,7612
2018-03-02T08:14:44.960Z,7628
2018-03-02T08:15:44.675Z,7644
2018-03-02T08:16:44.918Z,7580
2018-03-02T08:17:44.895Z,7564
2018-03-02T08:18:44.632Z,7576
2018-03-02T08:19:44.345Z,7648
2018-03-02T08:20:44.838Z,7664
2018-03-02T08:21:44.308Z,7668
2018-03-02T08:22:44.287Z,7644
2018-03-02T08:23:44.793Z,7660
2018-03-02T08:24:44.760Z,7640
2018-03-02T08:25:44.486Z,7608
2018-03-02T08:26:44.738Z,7612
2018-03-02T08:27:44.708Z,7592
2018-03-02T08:28:44.437Z,7528
2018-03-02T08:29:44.662Z,7620
2018-03-02T08:30:44.644Z,7608
2018-03-02T08:31:44.698Z,7568
2018-03-02T08:32:44.300Z,7600
2018-03-02T08:33:44.585Z,7572
2018-03-02T08:34:44.614Z,7596
2018-03-02T08:35:44.550Z,7616
2018-03-02T08:36:44.537Z,7644
2018-03-02T08:37:44.516Z,7592
2018-03-02T08:38:44.492Z,7588
2018-03-02T08:39:44.483Z,7588
2018-03-02T08:40:44.458Z,7660
2018-03-02T08:41:44.205Z,7640
2018-03-02T08:42:44.432Z,7660
2018-03-02T08:43:44.402Z,7672
2018-03-02T08:44:44.131Z,7624
2018-03-02T08:45:44.110Z,7656
2018-03-02T08:46:44.363Z,7672
2018-03-02T08:47:44.333Z,7680
2018-03-02T08:48:44.047Z,7708
2018-03-02T08:49:44.032Z,7736
2018-03-02T08:50:44.276Z,7736
2018-03-02T08:51:44.268Z,7728
2018-03-02T08:52:43.964Z,7708
2018-03-02T08:53:43.949Z,7708
2018-03-02T08:54:44.187Z,7720
2018-03-02T08:55:43.942Z,7744
2018-03-02T08:56:43.893Z,7752
2018-03-02T08:57:44.128Z,7740
2018-03-02T08:58:43.867Z,7756
2018-03-02T08:59:44.211Z,7744
2018-03-02T09:00:43.823Z,7772
2018-03-02T09:01:44.054Z,7756
2018-03-02T09:02:43.789Z,7736
2018-03-02T09:03:44.037Z,7708
2018-03-02T09:04:43.993Z,7720
2018-03-02T09:05:43.989Z,7748
2018-03-02T09:06:43.961Z,7772
2018-03-02T09:07:43.930Z,7780
2018-03-02T09:08:43.949Z,7792
2018-03-02T09:09:43.642Z,7760
2018-03-02T09:10:43.646Z,7732
2018-03-02T09:11:43.862Z,7716
2018-03-02T09:12:43.854Z,7640
2018-03-02T09:13:43.821Z,7636
2018-03-02T09:14:43.560Z,7636
2018-03-02T09:15:43.526Z,7548
2018-03-02T09:16:43.573Z,7520
2018-03-02T09:17:43.746Z,7512
2018-03-02T09:18:43.737Z,7552
2018-03-02T09:19:43.708Z,7512
2018-03-02T09:20:43.692Z,7488
2018-03-02T09:21:43.694Z,7416
2018-03-02T09:22:43.660Z,7404
2018-03-02T09:23:43.674Z,7420
2018-03-02T09:24:43.667Z,7380
2018-03-02T09:25:43.092Z,7368
2018-03-02T09:26:43.587Z,7368
2018-03-02T09:27:43.570Z,7396
2018-03-02T09:28:42.816Z,7340
2018-03-02T09:29:43.012Z,7296
2018-03-02T09:30:43.510Z,7308
2018-03-02T09:31:43.484Z,7300
2018-03-02T09:32:43.474Z,7280
2018-03-02T09:33:43.450Z,7312
2018-03-02T09:34:43.430Z,7276
2018-03-02T09:35:43.412Z,7252
2018-03-02T09:36:43.398Z,7180
2018-03-02T09:37:43.378Z,7192
2018-03-02T09:38:43.358Z,7188
2018-03-02T09:39:43.354Z,7152
2018-03-02T09:40:43.070Z,7088
2018-03-02T09:41:43.053Z,7072
2018-03-02T09:42:43.133Z,7100
2018-03-02T09:43:43.263Z,7088
2018-03-02T09:44:43.261Z,7092
2018-03-02T09:45:42.972Z,7104
2018-03-02T09:46:43.214Z,7012
2018-03-02T09:47:43.184Z,7004
2018-03-02T09:48:42.908Z,6972
2018-03-02T09:49:43.170Z,6948
2018-03-02T09:50:43.140Z,6864
2018-03-02T09:51:42.860Z,6936
2018-03-02T09:52:43.120Z,6940
2018-03-02T09:53:43.073Z,6948
2018-03-02T09:54:43.065Z,6860
2018-03-02T09:55:43.042Z,6808
2018-03-02T09:56:42.765Z,6868
2018-03-02T09:57:43.001Z,6860
2018-03-02T09:58:42.781Z,6816
2018-03-02T09:59:43.034Z,6804
2018-03-02T10:00:42.952Z,6784
2018-03-02T10:01:42.685Z,6788
2018-03-02T10:02:42.709Z,6848
2018-03-02T10:03:42.894Z,6816
2018-03-02T10:04:42.882Z,6808
2018-03-02T10:05:42.614Z,6796
2018-03-02T10:06:42.690Z,6784
2018-03-02T10:07:42.850Z,6744
2018-03-02T10:08:42.811Z,6748
2018-03-02T10:09:42.797Z,6772
2018-03-02T10:10:42.521Z,6804
2018-03-02T10:11:42.821Z,6784
2018-03-02T10:12:42.734Z,6800
2018-03-02T10:13:42.716Z,6792
2018-03-02T10:14:42.443Z,6708
2018-03-02T10:15:42.673Z,6724
2018-03-02T10:16:42.656Z,6776
2018-03-02T10:17:42.647Z,6712
2018-03-02T10:18:42.392Z,6704
2018-03-02T10:19:42.625Z,6736
2018-03-02T10:20:42.327Z,6740
2018-03-02T10:21:42.079Z,6672
2018-03-02T10:22:42.387Z,6676
2018-03-02T10:23:42.635Z,6636
2018-03-02T10:24:42.006Z,6632
2018-03-02T10:25:42.557Z,6608
2018-03-02T10:26:42.553Z,6580
2018-03-02T10:27:42.522Z,6536
2018-03-02T10:28:42.445Z,6516
2018-03-02T10:29:42.445Z,6628
2018-03-02T10:30:42.465Z,6616
2018-03-02T10:31:42.138Z,6584
2018-03-02T10:32:42.196Z,6552
2018-03-02T10:33:41.899Z,6560
2018-03-02T10:34:42.335Z,6580
2018-03-02T10:35:42.078Z,6540
2018-03-02T10:36:42.307Z,6536
2018-03-02T10:37:42.284Z,6524
2018-03-02T10:38:42.264Z,6480
2018-03-02T10:39:42.001Z,6488
2018-03-02T10:40:41.974Z,6500
2018-03-02T10:41:42.011Z,6496
2018-03-02T10:42:41.936Z,6456
2018-03-02T10:43:41.662Z,6424
2018-03-02T10:44:42.158Z,6412
2018-03-02T10:45:41.630Z,6388
2018-03-02T10:46:42.125Z,6380
2018-03-02T10:47:41.338Z,6400
2018-03-02T10:48:42.092Z,6380
2018-03-02T10:49:41.847Z,6364
2018-03-02T10:50:42.053Z,6352
2018-03-02T10:51:41.798Z,6296
2018-03-02T10:52:41.785Z,6288
2018-03-02T10:53:42.020Z,6280
2018-03-02T10:54:41.729Z,6296
2018-03-02T10:55:41.708Z,6300
2018-03-02T10:56:41.949Z,6308
2018-03-02T10:57:41.951Z,6284
2018-03-02T10:58:41.908Z,6224
2018-03-02T10:59:41.885Z,6192
2018-03-02T11:00:41.619Z,6180
2018-03-02T11:01:41.597Z,6192
2018-03-02T11:02:41.333Z,6192
2018-03-02T11:03:41.561Z,6164
2018-03-02T11:04:41.555Z,6124
2018-03-02T11:05:41.803Z,6096
2018-03-02T11:06:41.512Z,6056
2018-03-02T11:07:41.500Z,6012
2018-03-02T11:08:41.225Z,5996
2018-03-02T11:09:41.708Z,5972
2018-03-02T11:10:41.444Z,5984
2018-03-02T11:11:41.671Z,6004
2018-03-02T11:12:41.151Z,6064
2018-03-02T11:13:41.402Z,6104
2018-03-02T11:14:41.115Z,6104
2018-03-02T11:15:41.369Z,6084
2018-03-02T11:16:41.330Z,6040
2018-03-02T11:17:41.323Z,5984
2018-03-02T11:18:41.043Z,5940
2018-03-02T11:19:41.294Z,5908
2018-03-02T11:20:41.518Z,5912
2018-03-02T11:21:41.251Z,5892
2018-03-02T11:22:41.486Z,5808
2018-03-02T11:23:41.466Z,5756
2018-03-02T11:24:41.204Z,5780
2018-03-02T11:25:41.449Z,5844
2018-03-02T11:26:41.157Z,5880
2018-03-02T11:27:41.146Z,5928
2018-03-02T11:28:40.870Z,5964
2018-03-02T11:29:41.361Z,5988
2018-03-02T11:30:41.090Z,5984
2018-03-02T11:31:41.327Z,5980
2018-03-02T11:32:41.306Z,5952
2018-03-02T11:33:41.341Z,5912
2018-03-02T11:34:41.021Z,5880
2018-03-02T11:35:41.424Z,5840
2018-03-02T11:36:41.243Z,5828
2018-03-02T11:37:41.220Z,5796
2018-03-02T11:38:40.947Z,5788
2018-03-02T11:39:40.953Z,5792
2018-03-02T11:40:41.272Z,5776
2018-03-02T11:41:40.663Z,5788
2018-03-02T11:42:40.885Z,5816
2018-03-02T11:43:41.120Z,5812
2018-03-02T11:44:41.097Z,5816
2018-03-02T11:45:41.095Z,5828
2018-03-02T11:46:40.861Z,5816
2018-03-02T11:47:40.795Z,5800
2018-03-02T11:48:40.780Z,5792
2018-03-02T11:49:40.767Z,5776
2018-03-02T11:50:40.755Z,5756
2018-03-02T11:51:41.192Z,5744
2018-03-02T11:52:41.073Z,5728
2018-03-02T11:53:40.193Z,5728
2018-03-02T11:54:40.675Z,5716
2018-03-02T11:55:40.921Z,5684
2018-03-02T11:56:40.651Z,5648
2018-03-02T11:57:40.889Z,5664
2018-03-02T11:58:40.857Z,5668
2018-03-02T11:59:40.598Z,5660
2018-03-02T12:00:40.820Z,5644
2018-03-02T12:01:40.808Z,5616
2018-03-02T12:02:40.818Z,5588
2018-03-02T12:03:40.267Z,5580
2018-03-02T12:04:40.502Z,5600
2018-03-02T12:05:40.497Z,5600
2018-03-02T12:06:40.479Z,5588
2018-03-02T12:07:40.708Z,5576
2018-03-02T12:08:40.697Z,5548
2018-03-02T12:09:40.673Z,5548
2018-03-02T12:10:40.778Z,5544
2018-03-02T12:11:40.660Z,5556
2018-03-02T12:12:40.622Z,5560
2018-03-02T12:13:40.372Z,5560
2018-03-02T12:14:40.334Z,5532
2018-03-02T12:15:40.312Z,5520
2018-03-02T12:16:40.045Z,5548
2018-03-02T12:17:40.035Z,5540
2018-03-02T12:18:40.557Z,5548
2018-03-02T12:19:40.260Z,5528
2018-03-02T12:20:40.482Z,5508
2018-03-02T12:21:40.220Z,5484
2018-03-02T12:22:40.898Z,5464
2018-03-02T12:23:40.179Z,5440
2018-03-02T12:24:40.166Z,5428
2018-03-02T12:25:40.405Z,5412
2018-03-02T12:26:40.138Z,5380
2018-03-02T12:27:40.432Z,5376
2018-03-02T12:28:40.447Z,5368
2018-03-02T12:29:40.086Z,5352
2018-03-02T12:30:40.066Z,5352
2018-03-02T12:31:40.083Z,5344
2018-03-02T12:32:40.281Z,5352
2018-03-02T12:33:40.319Z,5360
2018-03-02T12:34:40.013Z,5376
2018-03-02T12:35:40.239Z,5380
2018-03-02T12:36:40.509Z,5356
2018-03-02T12:37:40.196Z,5344
2018-03-02T12:38:40.184Z,5320
2018-03-02T12:39:40.168Z,5292
2018-03-02T12:40:40.151Z,5288
2018-03-02T12:41:39.881Z,5296
2018-03-02T12:42:39.881Z,5268
2018-03-02T12:43:39.847Z,5256
2018-03-02T12:44:40.405Z,5244
2018-03-02T12:45:39.827Z,5196
2018-03-02T12:46:40.055Z,5192
2018-03-02T12:47:39.801Z,5176
2018-03-02T12:48:40.034Z,5180
2018-03-02T12:49:39.764Z,5204
2018-03-02T12:50:39.748Z,5196
2018-03-02T12:51:39.969Z,5172
2018-03-02T12:52:39.700Z,5164
2018-03-02T12:53:39.933Z,5184
2018-03-02T12:54:40.346Z,5188
2018-03-02T12:55:39.397Z,5172
2018-03-02T12:56:39.633Z,5156
2018-03-02T12:57:39.871Z,5124
2018-03-02T12:58:39.860Z,5112
2018-03-02T12:59:39.857Z,5116
2018-03-02T13:00:39.639Z,5108
2018-03-02T13:01:39.837Z,5088
2018-03-02T13:02:39.538Z,5068
2018-03-02T13:03:39.528Z,5024
2018-03-02T13:04:39.781Z,5020
2018-03-02T13:05:39.756Z,5040
2018-03-02T13:06:39.724Z,5032
2018-03-02T13:07:39.720Z,5036
2018-03-02T13:08:39.451Z,5044
2018-03-02T13:09:39.428Z,5024
2018-03-02T13:10:39.706Z,5000
2018-03-02T13:11:39.650Z,4956
2018-03-02T13:12:39.624Z,4940
2018-03-02T13:13:39.620Z,4944
2018-03-02T13:14:39.616Z,4948
2018-03-02T13:15:39.334Z,4932
2018-03-02T13:16:39.315Z,4912
2018-03-02T13:17:39.286Z,4900
2018-03-02T13:18:39.272Z,4900
2018-03-02T13:19:39.262Z,4900
2018-03-02T13:20:39.238Z,4908
2018-03-02T13:21:39.492Z,4920
2018-03-02T13:22:39.214Z,4940
2018-03-02T13:23:39.465Z,4936
2018-03-02T13:24:39.424Z,4924
2018-03-02T13:25:39.154Z,4904
2018-03-02T13:26:39.402Z,4892
2018-03-02T13:27:39.375Z,4864
2018-03-02T13:28:39.357Z,4848
2018-03-02T13:29:39.352Z,4848
2018-03-02T13:30:39.349Z,4848
2018-03-02T13:31:39.331Z,4836
2018-03-02T13:32:39.044Z,4840
2018-03-02T13:33:39.280Z,4844
2018-03-02T13:34:39.276Z,4824
2018-03-02T13:35:39.250Z,4816
2018-03-02T13:36:39.249Z,4788
2018-03-02T13:37:39.258Z,4796
2018-03-02T13:38:39.209Z,4812
2018-03-02T13:39:39.181Z,4796
2018-03-02T13:40:38.919Z,4780
2018-03-02T13:41:38.916Z,4764
2018-03-02T13:42:38.913Z,4732
2018-03-02T13:43:39.126Z,4716
2018-03-02T13:44:39.111Z,4696
2018-03-02T13:45:39.089Z,4696
2018-03-02T13:46:39.075Z,4684
2018-03-02T13:47:38.809Z,4676
2018-03-02T13:48:39.050Z,4676
2018-03-02T13:49:39.036Z,4668
2018-03-02T13:50:39.007Z,4656
2018-03-02T13:51:39.003Z,4640
2018-03-02T13:52:38.717Z,4628